createdAt,value
2023-10-07T00:02:25.188Z,3.08
2023-10-07T00:04:59.587Z,3.18
2023-10-07T00:17:50.129Z,3.17
2023-10-07T00:20:30.140Z,3.10
2023-10-07T00:23:03.897Z,3.13
2023-10-07T00:25:37.143Z,3.36
2023-10-07T00:28:10.338Z,3.13
2023-10-07T00:44:26.193Z,3.30
2023-10-07T00:47:01.555Z,2.95
2023-10-07T00:49:35.282Z,2.82
2023-10-07T00:52:09.641Z,2.82
2023-10-07T00:54:43.142Z,3.24
2023-10-07T00:57:18.074Z,2.92
2023-10-07T00:59:53.128Z,3.04
2023-10-07T01:10:00.122Z,2.90
2023-10-07T01:12:40.258Z,2.88
2023-10-07T01:15:15.310Z,3.06
2023-10-07T01:17:50.259Z,2.85
2023-10-07T01:20:23.858Z,3.05
2023-10-07T01:22:59.142Z,2.90
2023-10-07T01:36:44.129Z,2.85
2023-10-07T01:39:19.549Z,3.02
2023-10-07T01:41:53.118Z,3.02
2023-10-07T01:44:26.414Z,2.64
2023-10-07T01:47:00.216Z,2.68
2023-10-07T01:49:33.383Z,2.98
2023-10-07T02:05:50.340Z,2.95
2023-10-07T02:08:26.334Z,2.96
2023-10-07T02:11:02.109Z,2.76
2023-10-07T02:13:35.378Z,2.80
2023-10-07T02:16:13.334Z,2.87
2023-10-07T02:18:46.417Z,2.77
2023-10-07T02:31:37.109Z,2.61
2023-10-07T02:34:17.112Z,2.68
2023-10-07T02:36:50.367Z,2.61
2023-10-07T02:39:24.144Z,2.78
2023-10-07T02:41:57.367Z,2.65
2023-10-07T02:44:31.158Z,2.70
2023-10-07T02:57:43.141Z,2.73
2023-10-07T03:00:16.701Z,2.49
2023-10-07T03:02:51.129Z,2.65
2023-10-07T03:05:24.332Z,2.61
2023-10-07T03:07:58.137Z,2.84
2023-10-07T03:24:35.092Z,2.69
2023-10-07T03:27:18.109Z,2.63
2023-10-07T03:29:51.362Z,2.62
2023-10-07T03:32:25.135Z,2.47
2023-10-07T03:34:58.678Z,2.86
2023-10-07T03:37:32.235Z,2.38
2023-10-07T03:40:09.033Z,2.61
2023-10-07T03:50:24.162Z,2.70
2023-10-07T03:52:57.411Z,2.46
2023-10-07T03:55:33.149Z,2.71
2023-10-07T03:58:06.407Z,2.70
2023-10-07T04:00:40.116Z,2.72
2023-10-07T04:03:13.372Z,2.65
2023-10-07T04:19:29.114Z,2.81
2023-10-07T04:22:02.360Z,2.67
2023-10-07T04:24:36.323Z,2.64
2023-10-07T04:27:09.389Z,2.76
2023-10-07T04:29:43.286Z,2.72
2023-10-07T04:46:20.098Z,2.58
2023-10-07T04:49:02.113Z,2.68
2023-10-07T04:51:35.352Z,2.87
2023-10-07T04:54:09.225Z,2.97
2023-10-07T04:56:42.384Z,2.91
2023-10-07T04:59:16.180Z,2.95
2023-10-07T05:12:28.127Z,2.76
2023-10-07T05:15:01.453Z,3.01
2023-10-07T05:17:35.127Z,2.88
2023-10-07T05:20:10.340Z,2.83
2023-10-07T05:22:44.150Z,2.95
2023-10-07T05:25:17.411Z,3.00
2023-10-07T05:38:08.141Z,2.97
2023-10-07T05:40:48.209Z,2.89
2023-10-07T05:43:21.439Z,3.06
2023-10-07T05:45:55.163Z,2.89
2023-10-07T05:48:28.343Z,3.00
2023-10-07T05:51:02.113Z,3.01
2023-10-07T05:53:38.326Z,2.97
2023-10-07T06:06:27.102Z,2.89
2023-10-07T06:09:09.141Z,3.16
2023-10-07T06:11:42.549Z,3.11
2023-10-07T06:14:16.165Z,2.98
2023-10-07T06:16:49.459Z,3.00
2023-10-07T06:19:23.145Z,2.91
2023-10-07T06:32:36.305Z,3.73
2023-10-07T06:35:09.411Z,3.54
2023-10-07T06:37:43.224Z,3.48
2023-10-07T06:40:16.467Z,3.89
2023-10-07T06:42:50.167Z,3.49
2023-10-07T06:45:23.450Z,3.35
2023-10-07T06:58:14.116Z,2.86
2023-10-07T07:00:57.172Z,3.10
2023-10-07T07:03:30.433Z,2.87
2023-10-07T07:06:04.149Z,2.78
2023-10-07T07:08:37.399Z,2.90
2023-10-07T07:11:11.227Z,2.80
2023-10-07T07:13:46.355Z,2.79
2023-10-07T07:26:35.095Z,3.03
2023-10-07T07:29:17.212Z,3.08
2023-10-07T07:31:50.815Z,2.84
2023-10-07T07:34:29.288Z,2.89
2023-10-07T07:37:02.340Z,2.72
2023-10-07T07:39:36.135Z,2.72
2023-10-07T07:51:48.143Z,2.81
2023-10-07T07:54:21.386Z,2.89
2023-10-07T07:56:55.159Z,2.77
2023-10-07T07:59:28.484Z,2.69
2023-10-07T08:02:02.124Z,2.88
2023-10-07T08:04:35.474Z,2.64
2023-10-07T08:18:05.228Z,2.82
2023-10-07T08:20:45.141Z,3.06
2023-10-07T08:23:18.374Z,2.81
2023-10-07T08:25:52.192Z,2.97
2023-10-07T08:28:25.431Z,2.68
2023-10-07T08:30:59.144Z,2.98
2023-10-07T08:33:34.329Z,2.74
2023-10-07T08:46:24.107Z,3.01
2023-10-07T08:49:06.134Z,2.76
2023-10-07T08:51:42.388Z,2.67
2023-10-07T08:54:16.116Z,2.95
2023-10-07T08:56:50.995Z,2.74
2023-10-07T08:59:26.157Z,2.67
2023-10-07T09:12:38.138Z,2.37
2023-10-07T09:15:17.065Z,2.55
2023-10-07T09:17:57.160Z,2.27
2023-10-07T09:20:31.840Z,2.58
2023-10-07T09:23:07.197Z,2.48
2023-10-07T09:39:56.950Z,2.34
2023-10-07T09:42:38.141Z,2.27
2023-10-07T09:45:11.447Z,2.64
2023-10-07T09:47:45.259Z,2.78
2023-10-07T09:50:18.589Z,2.71
2023-10-07T09:52:55.161Z,2.87
2023-10-07T10:06:23.133Z,2.86
2023-10-07T10:08:58.328Z,2.87
2023-10-07T10:11:32.480Z,3.01
2023-10-07T10:14:07.355Z,3.06
2023-10-07T10:16:49.128Z,2.71
2023-10-07T10:19:29.852Z,3.09
2023-10-07T10:32:32.189Z,3.17
2023-10-07T10:35:14.157Z,3.05
2023-10-07T10:37:55.189Z,3.06
2023-10-07T10:40:35.311Z,3.12
2023-10-07T10:43:08.485Z,3.24
2023-10-07T10:58:39.117Z,2.80
2023-10-07T11:01:12.481Z,2.69
2023-10-07T11:03:48.144Z,2.68
2023-10-07T11:06:21.640Z,2.83
2023-10-07T11:08:55.141Z,2.84
2023-10-07T11:11:28.617Z,2.90
2023-10-07T11:14:04.184Z,2.71
2023-10-07T11:27:14.126Z,2.88
2023-10-07T11:29:59.747Z,3.10
2023-10-07T11:32:40.376Z,2.79
2023-10-07T11:35:19.182Z,2.82
2023-10-07T11:38:02.149Z,2.77
2023-10-07T11:40:35.408Z,2.84
2023-10-07T11:53:26.145Z,3.00
2023-10-07T11:56:06.159Z,3.33
2023-10-07T11:58:39.381Z,3.17
2023-10-07T12:01:13.179Z,3.15
2023-10-07T12:03:46.532Z,3.09
2023-10-07T12:20:02.180Z,2.98
2023-10-07T12:22:35.367Z,2.99
2023-10-07T12:25:09.204Z,3.09
2023-10-07T12:27:42.590Z,3.01
2023-10-07T12:30:21.368Z,3.18
2023-10-07T12:32:54.478Z,3.21
2023-10-07T12:35:30.161Z,3.12
2023-10-07T12:45:35.159Z,2.89
2023-10-07T12:48:16.863Z,2.88
2023-10-07T12:50:52.311Z,2.84
2023-10-07T12:53:26.190Z,2.93
2023-10-07T12:56:11.732Z,2.89
2023-10-07T12:58:52.166Z,2.58
2023-10-07T13:12:21.150Z,2.48
2023-10-07T13:14:54.441Z,2.42
2023-10-07T13:17:28.218Z,2.61
2023-10-07T13:20:01.470Z,2.63
2023-10-07T13:22:37.057Z,2.58
2023-10-07T13:25:10.395Z,2.40
2023-10-07T13:41:26.173Z,2.70
2023-10-07T13:43:59.422Z,2.80
2023-10-07T13:46:33.179Z,2.62
2023-10-07T13:49:06.420Z,2.55
2023-10-07T13:51:45.335Z,2.76
2023-10-07T13:54:18.567Z,2.72
2023-10-07T14:07:09.101Z,3.44
2023-10-07T14:09:49.136Z,2.99
2023-10-07T14:12:22.402Z,3.24
2023-10-07T14:14:56.168Z,3.06
2023-10-07T14:17:29.560Z,3.00
2023-10-07T14:20:03.180Z,3.05
2023-10-07T14:33:15.168Z,3.03
2023-10-07T14:35:53.071Z,2.98
2023-10-07T14:38:33.206Z,3.24
2023-10-07T14:41:06.841Z,3.17
2023-10-07T14:43:40.142Z,3.17
2023-10-07T15:00:18.191Z,3.16
2023-10-07T15:02:58.292Z,2.94
2023-10-07T15:05:31.573Z,3.04
2023-10-07T15:08:05.166Z,2.77
2023-10-07T15:10:42.328Z,2.95
2023-10-07T15:13:23.161Z,3.11
2023-10-07T15:26:35.223Z,2.92
2023-10-07T15:29:08.420Z,2.82
2023-10-07T15:31:42.132Z,2.97
2023-10-07T15:34:15.413Z,2.82
2023-10-07T15:36:49.145Z,2.93
2023-10-07T15:39:22.782Z,3.29
2023-10-07T15:52:55.514Z,3.00
2023-10-07T15:55:37.146Z,3.08
2023-10-07T15:58:10.405Z,2.91
2023-10-07T16:00:44.282Z,3.30
2023-10-07T16:03:17.606Z,3.23
2023-10-07T16:05:51.184Z,3.13
2023-10-07T16:08:26.471Z,3.29
2023-10-07T16:21:16.111Z,3.13
2023-10-07T16:23:58.154Z,3.16
2023-10-07T16:26:31.418Z,3.16
2023-10-07T16:29:05.183Z,3.17
2023-10-07T16:31:38.639Z,3.11
2023-10-07T16:34:12.154Z,3.27
2023-10-07T16:47:24.346Z,3.22
2023-10-07T16:49:58.386Z,3.38
2023-10-07T16:52:32.149Z,3.37
2023-10-07T16:55:06.858Z,2.95
2023-10-07T16:57:41.174Z,3.47
2023-10-07T17:00:15.308Z,3.32
2023-10-07T17:13:09.112Z,3.14
2023-10-07T17:15:51.158Z,3.13
2023-10-07T17:18:25.513Z,3.13
2023-10-07T17:21:00.710Z,3.36
2023-10-07T17:23:34.478Z,3.34
2023-10-07T17:26:08.235Z,3.13
2023-10-07T17:28:44.960Z,3.21
2023-10-07T17:41:33.181Z,3.20
2023-10-07T17:44:22.196Z,3.13
2023-10-07T17:46:55.551Z,3.31
2023-10-07T17:49:29.159Z,3.17
2023-10-07T17:52:02.398Z,3.40
2023-10-07T17:54:36.131Z,3.40
2023-10-07T18:07:51.038Z,3.35
2023-10-07T18:10:25.142Z,3.18
2023-10-07T18:12:59.158Z,3.08
2023-10-07T18:15:32.483Z,3.20
2023-10-07T18:18:06.198Z,3.20
2023-10-07T18:20:39.446Z,3.13
2023-10-07T18:35:33.171Z,3.08
2023-10-07T18:38:06.447Z,3.24
2023-10-07T18:40:40.155Z,3.02
2023-10-07T18:43:13.416Z,2.89
2023-10-07T18:45:47.149Z,3.15
2023-10-07T18:48:20.494Z,3.22
2023-10-07T19:00:26.125Z,3.16
2023-10-07T19:03:06.207Z,3.08
2023-10-07T19:05:39.469Z,3.25
2023-10-07T19:08:15.276Z,3.20
2023-10-07T19:10:48.645Z,3.06
2023-10-07T19:13:22.154Z,3.06
2023-10-07T19:15:55.426Z,3.07
2023-10-07T19:28:46.134Z,3.30
2023-10-07T19:31:26.143Z,2.98
2023-10-07T19:33:59.420Z,3.18
2023-10-07T19:36:33.145Z,3.14
2023-10-07T19:39:06.458Z,3.06
2023-10-07T19:55:22.171Z,3.25
2023-10-07T19:57:55.410Z,3.03
2023-10-07T20:00:29.157Z,3.18
2023-10-07T20:03:03.123Z,3.18
2023-10-07T20:05:37.222Z,3.27
2023-10-07T20:08:10.461Z,3.04
2023-10-07T20:10:51.326Z,3.42
2023-10-07T20:20:36.192Z,3.19
2023-10-07T20:23:16.185Z,3.41
2023-10-07T20:26:02.386Z,3.30
2023-10-07T20:28:44.141Z,3.43
2023-10-07T20:31:19.041Z,3.33
2023-10-07T20:33:53.181Z,3.42
2023-10-07T20:47:09.232Z,3.37
2023-10-07T20:49:42.439Z,3.55
2023-10-07T20:52:16.161Z,3.49
2023-10-07T20:54:49.438Z,3.24
2023-10-07T20:57:23.169Z,3.23
2023-10-07T20:59:56.688Z,3.33
2023-10-07T21:16:12.303Z,3.40
2023-10-07T21:18:45.442Z,3.38
2023-10-07T21:21:21.150Z,3.44
2023-10-07T21:23:54.483Z,3.44
2023-10-07T21:26:29.208Z,3.38
2023-10-07T21:29:02.459Z,3.35
2023-10-07T21:41:53.118Z,3.83
2023-10-07T21:44:33.208Z,3.38
2023-10-07T21:47:06.434Z,3.49
2023-10-07T21:49:40.139Z,3.37
2023-10-07T21:52:13.427Z,3.63
2023-10-07T21:54:47.160Z,3.41
2023-10-07T22:07:59.177Z,3.58
2023-10-07T22:10:32.409Z,3.47
2023-10-07T22:13:06.169Z,3.56
2023-10-07T22:15:40.928Z,3.43
2023-10-07T22:18:15.303Z,3.43
2023-10-07T22:20:49.447Z,3.69
2023-10-07T22:34:10.119Z,3.59
2023-10-07T22:36:50.180Z,3.57
2023-10-07T22:39:23.435Z,3.41
2023-10-07T22:41:57.193Z,3.66
2023-10-07T22:44:30.448Z,3.73
2023-10-07T22:47:04.302Z,3.55
2023-10-07T22:49:39.505Z,3.69
2023-10-07T23:02:28.193Z,3.73
2023-10-07T23:05:11.236Z,3.64
2023-10-07T23:07:44.417Z,3.80
2023-10-07T23:10:18.168Z,3.88
2023-10-07T23:12:51.379Z,3.86
2023-10-07T23:15:25.241Z,3.80
2023-10-07T23:28:37.184Z,3.79
2023-10-07T23:31:10.492Z,3.77
2023-10-07T23:33:44.145Z,3.79
2023-10-07T23:36:17.631Z,3.91
2023-10-07T23:38:51.164Z,3.97
2023-10-07T23:55:28.135Z,4.28
2023-10-07T23:58:08.150Z,4.23
